sensor_id;sensor_type;location;lat;lon;timestamp;P1;durP1;ratioP1;P2;durP2;ratioP2
11328;SDS011;5719;42.714;23.732;2024-02-21T00:01:16;76.90;;;36.67;;
11328;SDS011;5719;42.714;23.732;2024-02-21T00:03:43;59.67;;;31.27;;
11328;SDS011;5719;42.714;23.732;2024-02-21T00:06:09;52.88;;;28.48;;
11328;SDS011;5719;42.714;23.732;2024-02-21T00:08:36;52.17;;;28.10;;
11328;SDS011;5719;42.714;23.732;2024-02-21T00:11:04;48.22;;;27.75;;
11328;SDS011;5719;42.714;23.732;2024-02-21T00:13:31;49.17;;;27.73;;
11328;SDS011;5719;42.714;23.732;2024-02-21T00:15:59;52.47;;;28.73;;
11328;SDS011;5719;42.714;23.732;2024-02-21T00:18:26;50.30;;;28.08;;
11328;SDS011;5719;42.714;23.732;2024-02-21T00:20:53;48.25;;;26.50;;
11328;SDS011;5719;42.714;23.732;2024-02-21T00:23:20;48.30;;;26.40;;
11328;SDS011;5719;42.714;23.732;2024-02-21T00:25:46;43.00;;;26.17;;
11328;SDS011;5719;42.714;23.732;2024-02-21T00:28:14;47.80;;;27.15;;
11328;SDS011;5719;42.714;23.732;2024-02-21T00:30:41;46.53;;;27.02;;
11328;SDS011;5719;42.714;23.732;2024-02-21T00:33:07;52.83;;;28.52;;
11328;SDS011;5719;42.714;23.732;2024-02-21T00:35:34;46.75;;;26.67;;
11328;SDS011;5719;42.714;23.732;2024-02-21T00:38:00;49.67;;;28.30;;
11328;SDS011;5719;42.714;23.732;2024-02-21T00:40:28;51.15;;;28.45;;
11328;SDS011;5719;42.714;23.732;2024-02-21T00:42:55;46.95;;;26.98;;
11328;SDS011;5719;42.714;23.732;2024-02-21T00:45:23;48.45;;;26.80;;
11328;SDS011;5719;42.714;23.732;2024-02-21T00:47:50;48.13;;;26.35;;
11328;SDS011;5719;42.714;23.732;2024-02-21T00:50:16;50.60;;;27.23;;
11328;SDS011;5719;42.714;23.732;2024-02-21T00:52:43;47.35;;;27.40;;
11328;SDS011;5719;42.714;23.732;2024-02-21T00:55:10;47.90;;;27.20;;
11328;SDS011;5719;42.714;23.732;2024-02-21T00:57:37;48.75;;;28.45;;
11328;SDS011;5719;42.714;23.732;2024-02-21T01:00:04;44.58;;;26.75;;
11328;SDS011;5719;42.714;23.732;2024-02-21T01:02:34;44.92;;;26.27;;
11328;SDS011;5719;42.714;23.732;2024-02-21T01:05:01;47.97;;;26.77;;
11328;SDS011;5719;42.714;23.732;2024-02-21T01:07:28;46.55;;;26.48;;
11328;SDS011;5719;42.714;23.732;2024-02-21T01:09:55;46.38;;;26.35;;
11328;SDS011;5719;42.714;23.732;2024-02-21T01:12:21;46.95;;;26.92;;
11328;SDS011;5719;42.714;23.732;2024-02-21T01:14:48;45.35;;;26.73;;
11328;SDS011;5719;42.714;23.732;2024-02-21T01:17:15;49.20;;;27.13;;
11328;SDS011;5719;42.714;23.732;2024-02-21T01:19:45;44.92;;;26.92;;
11328;SDS011;5719;42.714;23.732;2024-02-21T01:22:12;48.15;;;27.15;;
11328;SDS011;5719;42.714;23.732;2024-02-21T01:24:40;46.08;;;26.90;;
11328;SDS011;5719;42.714;23.732;2024-02-21T01:27:06;49.78;;;27.70;;
11328;SDS011;5719;42.714;23.732;2024-02-21T01:29:33;47.95;;;27.67;;
11328;SDS011;5719;42.714;23.732;2024-02-21T01:32:00;47.50;;;26.95;;
11328;SDS011;5719;42.714;23.732;2024-02-21T01:34:26;53.45;;;27.48;;
11328;SDS011;5719;42.714;23.732;2024-02-21T01:36:54;47.47;;;27.65;;
11328;SDS011;5719;42.714;23.732;2024-02-21T01:39:21;47.45;;;28.40;;
11328;SDS011;5719;42.714;23.732;2024-02-21T01:41:48;54.33;;;29.83;;
11328;SDS011;5719;42.714;23.732;2024-02-21T01:44:15;55.72;;;28.83;;
11328;SDS011;5719;42.714;23.732;2024-02-21T01:46:41;53.95;;;29.50;;
11328;SDS011;5719;42.714;23.732;2024-02-21T01:49:08;52.38;;;29.48;;
11328;SDS011;5719;42.714;23.732;2024-02-21T01:51:36;53.33;;;28.95;;
11328;SDS011;5719;42.714;23.732;2024-02-21T01:54:04;50.53;;;28.77;;
11328;SDS011;5719;42.714;23.732;2024-02-21T01:56:32;54.20;;;29.17;;
11328;SDS011;5719;42.714;23.732;2024-02-21T01:58:59;51.30;;;28.48;;
11328;SDS011;5719;42.714;23.732;2024-02-21T02:01:26;53.30;;;30.00;;
11328;SDS011;5719;42.714;23.732;2024-02-21T02:03:53;53.38;;;29.50;;
11328;SDS011;5719;42.714;23.732;2024-02-21T02:06:21;50.60;;;28.17;;
11328;SDS011;5719;42.714;23.732;2024-02-21T02:08:48;53.53;;;28.52;;
11328;SDS011;5719;42.714;23.732;2024-02-21T02:11:16;46.03;;;27.30;;
11328;SDS011;5719;42.714;23.732;2024-02-21T02:13:44;46.70;;;27.45;;
11328;SDS011;5719;42.714;23.732;2024-02-21T02:16:10;57.22;;;30.88;;
11328;SDS011;5719;42.714;23.732;2024-02-21T02:18:37;49.25;;;27.02;;
11328;SDS011;5719;42.714;23.732;2024-02-21T02:21:04;49.42;;;27.67;;
11328;SDS011;5719;42.714;23.732;2024-02-21T02:23:36;37.80;;;22.10;;
11328;SDS011;5719;42.714;23.732;2024-02-21T02:26:03;37.42;;;23.35;;
11328;SDS011;5719;42.714;23.732;2024-02-21T02:28:32;35.35;;;21.15;;
11328;SDS011;5719;42.714;23.732;2024-02-21T02:30:59;32.40;;;20.58;;
11328;SDS011;5719;42.714;23.732;2024-02-21T02:33:25;34.42;;;21.05;;
11328;SDS011;5719;42.714;23.732;2024-02-21T02:35:52;36.55;;;21.35;;
11328;SDS011;5719;42.714;23.732;2024-02-21T02:38:19;35.15;;;19.65;;
11328;SDS011;5719;42.714;23.732;2024-02-21T02:40:47;36.58;;;21.60;;
11328;SDS011;5719;42.714;23.732;2024-02-21T02:43:14;39.75;;;21.65;;
11328;SDS011;5719;42.714;23.732;2024-02-21T02:45:40;39.80;;;21.52;;
11328;SDS011;5719;42.714;23.732;2024-02-21T02:48:07;37.13;;;20.75;;
11328;SDS011;5719;42.714;23.732;2024-02-21T02:50:34;37.13;;;21.45;;
11328;SDS011;5719;42.714;23.732;2024-02-21T02:53:01;33.97;;;20.05;;
11328;SDS011;5719;42.714;23.732;2024-02-21T02:55:28;37.45;;;20.67;;
11328;SDS011;5719;42.714;23.732;2024-02-21T02:57:56;37.00;;;20.95;;
11328;SDS011;5719;42.714;23.732;2024-02-21T03:00:23;35.90;;;20.80;;
11328;SDS011;5719;42.714;23.732;2024-02-21T03:02:49;36.90;;;21.60;;
11328;SDS011;5719;42.714;23.732;2024-02-21T03:05:16;34.65;;;20.88;;
11328;SDS011;5719;42.714;23.732;2024-02-21T03:07:44;34.40;;;20.23;;
11328;SDS011;5719;42.714;23.732;2024-02-21T03:10:11;34.28;;;20.30;;
11328;SDS011;5719;42.714;23.732;2024-02-21T03:12:38;36.53;;;21.40;;
11328;SDS011;5719;42.714;23.732;2024-02-21T03:15:06;39.53;;;21.08;;
11328;SDS011;5719;42.714;23.732;2024-02-21T03:17:34;36.08;;;20.90;;
11328;SDS011;5719;42.714;23.732;2024-02-21T03:20:01;33.75;;;19.92;;
11328;SDS011;5719;42.714;23.732;2024-02-21T03:22:30;38.63;;;22.20;;
11328;SDS011;5719;42.714;23.732;2024-02-21T03:24:57;34.20;;;20.98;;
11328;SDS011;5719;42.714;23.732;2024-02-21T03:27:24;37.55;;;19.55;;
11328;SDS011;5719;42.714;23.732;2024-02-21T03:29:50;32.63;;;19.38;;
11328;SDS011;5719;42.714;23.732;2024-02-21T03:32:19;37.33;;;21.40;;
11328;SDS011;5719;42.714;23.732;2024-02-21T03:34:45;31.02;;;18.30;;
11328;SDS011;5719;42.714;23.732;2024-02-21T03:37:12;29.42;;;17.23;;
11328;SDS011;5719;42.714;23.732;2024-02-21T03:39:39;29.50;;;17.92;;
11328;SDS011;5719;42.714;23.732;2024-02-21T03:42:06;30.50;;;17.67;;
11328;SDS011;5719;42.714;23.732;2024-02-21T03:44:33;28.33;;;16.42;;
11328;SDS011;5719;42.714;23.732;2024-02-21T03:47:00;28.67;;;17.58;;
11328;SDS011;5719;42.714;23.732;2024-02-21T03:49:28;26.58;;;16.25;;
11328;SDS011;5719;42.714;23.732;2024-02-21T03:51:55;24.35;;;15.50;;
11328;SDS011;5719;42.714;23.732;2024-02-21T03:54:22;25.40;;;16.02;;
11328;SDS011;5719;42.714;23.732;2024-02-21T03:56:49;25.33;;;16.00;;
11328;SDS011;5719;42.714;23.732;2024-02-21T03:59:16;25.88;;;15.63;;
11328;SDS011;5719;42.714;23.732;2024-02-21T04:01:42;23.83;;;15.23;;
11328;SDS011;5719;42.714;23.732;2024-02-21T04:04:09;26.33;;;16.75;;
11328;SDS011;5719;42.714;23.732;2024-02-21T04:06:38;27.98;;;17.10;;
11328;SDS011;5719;42.714;23.732;2024-02-21T04:09:12;26.35;;;16.50;;
11328;SDS011;5719;42.714;23.732;2024-02-21T04:11:39;27.10;;;16.75;;
11328;SDS011;5719;42.714;23.732;2024-02-21T04:14:05;28.27;;;17.10;;
11328;SDS011;5719;42.714;23.732;2024-02-21T04:16:32;29.17;;;17.48;;
11328;SDS011;5719;42.714;23.732;2024-02-21T04:18:59;30.65;;;17.73;;
11328;SDS011;5719;42.714;23.732;2024-02-21T04:21:27;31.15;;;18.98;;
11328;SDS011;5719;42.714;23.732;2024-02-21T04:23:55;28.23;;;17.75;;
11328;SDS011;5719;42.714;23.732;2024-02-21T04:26:21;32.40;;;18.60;;
11328;SDS011;5719;42.714;23.732;2024-02-21T04:28:48;34.47;;;18.75;;
11328;SDS011;5719;42.714;23.732;2024-02-21T04:31:15;31.52;;;17.20;;
11328;SDS011;5719;42.714;23.732;2024-02-21T04:33:42;36.75;;;19.42;;
11328;SDS011;5719;42.714;23.732;2024-02-21T04:36:08;34.55;;;19.48;;
11328;SDS011;5719;42.714;23.732;2024-02-21T04:38:35;39.40;;;22.23;;
11328;SDS011;5719;42.714;23.732;2024-02-21T04:41:05;33.47;;;19.85;;
11328;SDS011;5719;42.714;23.732;2024-02-21T04:43:33;37.05;;;20.20;;
11328;SDS011;5719;42.714;23.732;2024-02-21T04:45:59;35.38;;;19.50;;
11328;SDS011;5719;42.714;23.732;2024-02-21T04:48:26;40.88;;;21.77;;
11328;SDS011;5719;42.714;23.732;2024-02-21T04:50:53;40.28;;;20.90;;
11328;SDS011;5719;42.714;23.732;2024-02-21T04:53:20;39.75;;;20.38;;
11328;SDS011;5719;42.714;23.732;2024-02-21T04:55:47;31.00;;;17.95;;
11328;SDS011;5719;42.714;23.732;2024-02-21T04:58:15;32.67;;;18.58;;
11328;SDS011;5719;42.714;23.732;2024-02-21T05:00:42;29.33;;;16.90;;
11328;SDS011;5719;42.714;23.732;2024-02-21T05:03:08;32.45;;;17.88;;
11328;SDS011;5719;42.714;23.732;2024-02-21T05:05:36;28.63;;;17.35;;
11328;SDS011;5719;42.714;23.732;2024-02-21T05:08:03;26.58;;;16.92;;
11328;SDS011;5719;42.714;23.732;2024-02-21T05:10:30;24.60;;;15.48;;
11328;SDS011;5719;42.714;23.732;2024-02-21T05:12:57;25.40;;;15.55;;
11328;SDS011;5719;42.714;23.732;2024-02-21T05:15:25;23.92;;;15.65;;
11328;SDS011;5719;42.714;23.732;2024-02-21T05:17:52;25.10;;;15.75;;
11328;SDS011;5719;42.714;23.732;2024-02-21T05:20:19;27.35;;;15.95;;
11328;SDS011;5719;42.714;23.732;2024-02-21T05:22:46;27.17;;;16.33;;
11328;SDS011;5719;42.714;23.732;2024-02-21T05:25:13;27.60;;;15.93;;
11328;SDS011;5719;42.714;23.732;2024-02-21T05:27:40;28.10;;;16.55;;
11328;SDS011;5719;42.714;23.732;2024-02-21T05:30:07;31.92;;;17.85;;
11328;SDS011;5719;42.714;23.732;2024-02-21T05:32:36;29.75;;;17.52;;
11328;SDS011;5719;42.714;23.732;2024-02-21T05:35:03;35.22;;;18.83;;
11328;SDS011;5719;42.714;23.732;2024-02-21T05:37:30;35.40;;;18.73;;
11328;SDS011;5719;42.714;23.732;2024-02-21T05:39:57;34.22;;;19.67;;
11328;SDS011;5719;42.714;23.732;2024-02-21T05:42:24;35.25;;;20.42;;
11328;SDS011;5719;42.714;23.732;2024-02-21T05:44:50;39.05;;;22.15;;
11328;SDS011;5719;42.714;23.732;2024-02-21T05:47:17;54.30;;;29.95;;
11328;SDS011;5719;42.714;23.732;2024-02-21T05:49:47;53.65;;;30.05;;
11328;SDS011;5719;42.714;23.732;2024-02-21T05:52:14;56.17;;;31.10;;
11328;SDS011;5719;42.714;23.732;2024-02-21T05:54:40;63.28;;;32.13;;
11328;SDS011;5719;42.714;23.732;2024-02-21T05:57:07;53.45;;;30.83;;
11328;SDS011;5719;42.714;23.732;2024-02-21T05:59:34;55.85;;;28.02;;
11328;SDS011;5719;42.714;23.732;2024-02-21T06:02:05;47.05;;;24.55;;
11328;SDS011;5719;42.714;23.732;2024-02-21T06:04:32;45.25;;;22.63;;
11328;SDS011;5719;42.714;23.732;2024-02-21T06:07:00;45.97;;;23.05;;
11328;SDS011;5719;42.714;23.732;2024-02-21T06:09:27;46.55;;;21.75;;
11328;SDS011;5719;42.714;23.732;2024-02-21T06:11:53;44.08;;;22.77;;
11328;SDS011;5719;42.714;23.732;2024-02-21T06:14:20;47.63;;;21.80;;
11328;SDS011;5719;42.714;23.732;2024-02-21T06:16:47;49.95;;;22.27;;
11328;SDS011;5719;42.714;23.732;2024-02-21T06:19:14;45.90;;;22.85;;
11328;SDS011;5719;42.714;23.732;2024-02-21T06:21:40;44.70;;;22.80;;
11328;SDS011;5719;42.714;23.732;2024-02-21T06:24:09;46.47;;;22.02;;
11328;SDS011;5719;42.714;23.732;2024-02-21T06:26:37;41.13;;;21.52;;
11328;SDS011;5719;42.714;23.732;2024-02-21T06:29:05;36.72;;;19.90;;
11328;SDS011;5719;42.714;23.732;2024-02-21T06:31:32;39.75;;;19.73;;
11328;SDS011;5719;42.714;23.732;2024-02-21T06:33:59;41.80;;;20.15;;
11328;SDS011;5719;42.714;23.732;2024-02-21T06:36:25;39.53;;;20.85;;
11328;SDS011;5719;42.714;23.732;2024-02-21T06:38:52;39.47;;;20.00;;
11328;SDS011;5719;42.714;23.732;2024-02-21T06:41:21;41.58;;;20.10;;
11328;SDS011;5719;42.714;23.732;2024-02-21T06:43:48;36.78;;;19.77;;
11328;SDS011;5719;42.714;23.732;2024-02-21T06:46:22;38.30;;;19.63;;
11328;SDS011;5719;42.714;23.732;2024-02-21T06:48:50;39.35;;;20.05;;
11328;SDS011;5719;42.714;23.732;2024-02-21T06:51:17;35.35;;;19.58;;
11328;SDS011;5719;42.714;23.732;2024-02-21T06:53:44;36.40;;;19.20;;
11328;SDS011;5719;42.714;23.732;2024-02-21T06:56:11;33.72;;;18.02;;
11328;SDS011;5719;42.714;23.732;2024-02-21T06:58:39;35.70;;;19.42;;
11328;SDS011;5719;42.714;23.732;2024-02-21T07:01:06;39.13;;;18.55;;
11328;SDS011;5719;42.714;23.732;2024-02-21T07:03:33;36.25;;;18.33;;
11328;SDS011;5719;42.714;23.732;2024-02-21T07:06:00;34.13;;;17.95;;
11328;SDS011;5719;42.714;23.732;2024-02-21T07:08:27;35.20;;;19.10;;
11328;SDS011;5719;42.714;23.732;2024-02-21T07:10:54;33.85;;;18.92;;
11328;SDS011;5719;42.714;23.732;2024-02-21T07:13:21;34.97;;;18.30;;
11328;SDS011;5719;42.714;23.732;2024-02-21T07:15:49;34.45;;;17.90;;
11328;SDS011;5719;42.714;23.732;2024-02-21T07:18:16;31.85;;;17.75;;
11328;SDS011;5719;42.714;23.732;2024-02-21T07:20:43;36.20;;;18.58;;
11328;SDS011;5719;42.714;23.732;2024-02-21T07:23:10;33.05;;;18.45;;
11328;SDS011;5719;42.714;23.732;2024-02-21T07:25:37;29.42;;;16.48;;
11328;SDS011;5719;42.714;23.732;2024-02-21T07:28:04;29.95;;;17.10;;
11328;SDS011;5719;42.714;23.732;2024-02-21T07:30:33;30.88;;;17.40;;
11328;SDS011;5719;42.714;23.732;2024-02-21T07:33:01;30.85;;;16.92;;
11328;SDS011;5719;42.714;23.732;2024-02-21T07:35:28;30.40;;;16.85;;
11328;SDS011;5719;42.714;23.732;2024-02-21T07:37:55;26.85;;;15.25;;
11328;SDS011;5719;42.714;23.732;2024-02-21T07:40:24;23.40;;;14.52;;
11328;SDS011;5719;42.714;23.732;2024-02-21T07:42:51;23.30;;;14.13;;
11328;SDS011;5719;42.714;23.732;2024-02-21T07:45:18;23.13;;;14.23;;
11328;SDS011;5719;42.714;23.732;2024-02-21T07:47:47;22.98;;;14.10;;
11328;SDS011;5719;42.714;23.732;2024-02-21T07:50:15;25.75;;;14.90;;
11328;SDS011;5719;42.714;23.732;2024-02-21T07:52:42;22.77;;;13.82;;
11328;SDS011;5719;42.714;23.732;2024-02-21T07:55:09;23.63;;;14.43;;
11328;SDS011;5719;42.714;23.732;2024-02-21T07:57:36;23.25;;;14.25;;
11328;SDS011;5719;42.714;23.732;2024-02-21T08:00:04;21.83;;;14.10;;
11328;SDS011;5719;42.714;23.732;2024-02-21T08:02:34;23.58;;;15.13;;
11328;SDS011;5719;42.714;23.732;2024-02-21T08:05:02;21.27;;;13.82;;
11328;SDS011;5719;42.714;23.732;2024-02-21T08:07:30;23.80;;;15.20;;
11328;SDS011;5719;42.714;23.732;2024-02-21T08:09:57;24.70;;;15.02;;
11328;SDS011;5719;42.714;23.732;2024-02-21T08:12:24;23.58;;;15.15;;
11328;SDS011;5719;42.714;23.732;2024-02-21T08:14:50;22.17;;;14.98;;
11328;SDS011;5719;42.714;23.732;2024-02-21T08:17:17;21.92;;;14.35;;
11328;SDS011;5719;42.714;23.732;2024-02-21T08:19:44;20.73;;;13.93;;
11328;SDS011;5719;42.714;23.732;2024-02-21T08:22:11;27.75;;;13.40;;
11328;SDS011;5719;42.714;23.732;2024-02-21T08:24:39;24.30;;;14.05;;
11328;SDS011;5719;42.714;23.732;2024-02-21T08:27:06;20.98;;;14.15;;
11328;SDS011;5719;42.714;23.732;2024-02-21T08:29:33;20.45;;;13.23;;
11328;SDS011;5719;42.714;23.732;2024-02-21T08:32:00;23.08;;;13.68;;
11328;SDS011;5719;42.714;23.732;2024-02-21T08:34:26;22.10;;;14.60;;
11328;SDS011;5719;42.714;23.732;2024-02-21T08:36:55;23.15;;;15.68;;
11328;SDS011;5719;42.714;23.732;2024-02-21T08:39:22;21.50;;;14.77;;
11328;SDS011;5719;42.714;23.732;2024-02-21T08:41:50;22.10;;;15.05;;
11328;SDS011;5719;42.714;23.732;2024-02-21T08:44:17;20.73;;;13.93;;
11328;SDS011;5719;42.714;23.732;2024-02-21T08:46:43;19.80;;;13.52;;
11328;SDS011;5719;42.714;23.732;2024-02-21T08:49:12;17.92;;;12.35;;
11328;SDS011;5719;42.714;23.732;2024-02-21T08:51:39;21.48;;;13.20;;
11328;SDS011;5719;42.714;23.732;2024-02-21T08:54:06;17.58;;;12.65;;
11328;SDS011;5719;42.714;23.732;2024-02-21T08:56:33;19.13;;;12.65;;
11328;SDS011;5719;42.714;23.732;2024-02-21T08:59:01;17.65;;;12.55;;
11328;SDS011;5719;42.714;23.732;2024-02-21T09:01:28;19.08;;;12.40;;
11328;SDS011;5719;42.714;23.732;2024-02-21T09:03:55;19.58;;;12.20;;
11328;SDS011;5719;42.714;23.732;2024-02-21T09:06:22;17.30;;;12.20;;
11328;SDS011;5719;42.714;23.732;2024-02-21T09:08:49;19.80;;;13.75;;
11328;SDS011;5719;42.714;23.732;2024-02-21T09:11:16;18.15;;;12.98;;
11328;SDS011;5719;42.714;23.732;2024-02-21T09:13:43;18.10;;;13.07;;
11328;SDS011;5719;42.714;23.732;2024-02-21T09:16:11;18.92;;;13.75;;
11328;SDS011;5719;42.714;23.732;2024-02-21T09:18:37;18.05;;;12.23;;
11328;SDS011;5719;42.714;23.732;2024-02-21T09:21:04;21.27;;;12.73;;
11328;SDS011;5719;42.714;23.732;2024-02-21T09:23:31;18.48;;;13.23;;
11328;SDS011;5719;42.714;23.732;2024-02-21T09:25:58;19.83;;;12.73;;
11328;SDS011;5719;42.714;23.732;2024-02-21T09:28:28;19.50;;;12.07;;
11328;SDS011;5719;42.714;23.732;2024-02-21T09:30:55;18.67;;;12.45;;
11328;SDS011;5719;42.714;23.732;2024-02-21T09:33:23;20.67;;;13.55;;
11328;SDS011;5719;42.714;23.732;2024-02-21T09:35:50;19.67;;;13.45;;
11328;SDS011;5719;42.714;23.732;2024-02-21T09:38:18;18.00;;;12.80;;
11328;SDS011;5719;42.714;23.732;2024-02-21T09:40:44;19.23;;;13.10;;
11328;SDS011;5719;42.714;23.732;2024-02-21T09:43:12;15.88;;;10.75;;
11328;SDS011;5719;42.714;23.732;2024-02-21T09:45:46;16.27;;;11.95;;
11328;SDS011;5719;42.714;23.732;2024-02-21T09:48:25;18.45;;;10.90;;
11328;SDS011;5719;42.714;23.732;2024-02-21T09:50:59;14.63;;;11.05;;
11328;SDS011;5719;42.714;23.732;2024-02-21T09:53:28;16.80;;;10.73;;
11328;SDS011;5719;42.714;23.732;2024-02-21T09:55:58;14.32;;;10.15;;
11328;SDS011;5719;42.714;23.732;2024-02-21T09:58:25;19.08;;;11.77;;
11328;SDS011;5719;42.714;23.732;2024-02-21T10:00:53;17.27;;;11.23;;
11328;SDS011;5719;42.714;23.732;2024-02-21T10:03:20;19.33;;;10.90;;
11328;SDS011;5719;42.714;23.732;2024-02-21T10:05:50;13.93;;;10.77;;
11328;SDS011;5719;42.714;23.732;2024-02-21T10:08:18;13.07;;;9.77;;
11328;SDS011;5719;42.714;23.732;2024-02-21T10:10:46;11.40;;;9.25;;
11328;SDS011;5719;42.714;23.732;2024-02-21T10:13:23;14.95;;;10.68;;
11328;SDS011;5719;42.714;23.732;2024-02-21T10:16:00;15.80;;;11.07;;
11328;SDS011;5719;42.714;23.732;2024-02-21T10:18:30;15.40;;;11.25;;
11328;SDS011;5719;42.714;23.732;2024-02-21T10:21:02;20.88;;;10.93;;
11328;SDS011;5719;42.714;23.732;2024-02-21T10:23:40;17.48;;;10.95;;
11328;SDS011;5719;42.714;23.732;2024-02-21T10:26:10;17.55;;;11.63;;
11328;SDS011;5719;42.714;23.732;2024-02-21T10:28:37;22.35;;;14.90;;
11328;SDS011;5719;42.714;23.732;2024-02-21T10:31:07;24.25;;;15.45;;
11328;SDS011;5719;42.714;23.732;2024-02-21T10:33:35;20.58;;;14.57;;
11328;SDS011;5719;42.714;23.732;2024-02-21T10:36:10;13.60;;;10.95;;
11328;SDS011;5719;42.714;23.732;2024-02-21T10:38:38;15.15;;;11.63;;
11328;SDS011;5719;42.714;23.732;2024-02-21T10:41:05;14.65;;;10.93;;
11328;SDS011;5719;42.714;23.732;2024-02-21T10:43:35;14.38;;;9.93;;
11328;SDS011;5719;42.714;23.732;2024-02-21T10:46:05;15.33;;;11.43;;
11328;SDS011;5719;42.714;23.732;2024-02-21T10:48:35;15.23;;;11.68;;
11328;SDS011;5719;42.714;23.732;2024-02-21T10:51:12;36.08;;;20.70;;
11328;SDS011;5719;42.714;23.732;2024-02-21T10:53:44;31.73;;;18.58;;
11328;SDS011;5719;42.714;23.732;2024-02-21T10:56:22;22.33;;;12.93;;
11328;SDS011;5719;42.714;23.732;2024-02-21T10:58:54;17.88;;;10.00;;
11328;SDS011;5719;42.714;23.732;2024-02-21T11:01:23;19.95;;;11.85;;
11328;SDS011;5719;42.714;23.732;2024-02-21T11:03:53;13.77;;;10.50;;
11328;SDS011;5719;42.714;23.732;2024-02-21T11:06:22;34.88;;;18.02;;
11328;SDS011;5719;42.714;23.732;2024-02-21T11:08:59;21.25;;;11.93;;
11328;SDS011;5719;42.714;23.732;2024-02-21T11:11:29;28.65;;;15.45;;
11328;SDS011;5719;42.714;23.732;2024-02-21T11:14:05;11.13;;;8.13;;
11328;SDS011;5719;42.714;23.732;2024-02-21T11:16:36;29.15;;;14.77;;
11328;SDS011;5719;42.714;23.732;2024-02-21T11:19:05;10.38;;;7.88;;
11328;SDS011;5719;42.714;23.732;2024-02-21T11:21:34;17.83;;;11.05;;
11328;SDS011;5719;42.714;23.732;2024-02-21T11:24:02;16.20;;;10.10;;
11328;SDS011;5719;42.714;23.732;2024-02-21T11:26:27;43.35;;;23.92;;
11328;SDS011;5719;42.714;23.732;2024-02-21T11:28:56;19.27;;;11.57;;
11328;SDS011;5719;42.714;23.732;2024-02-21T11:31:24;6.38;;;5.30;;
11328;SDS011;5719;42.714;23.732;2024-02-21T11:33:52;8.65;;;7.05;;
11328;SDS011;5719;42.714;23.732;2024-02-21T11:36:23;10.75;;;8.50;;
11328;SDS011;5719;42.714;23.732;2024-02-21T11:38:52;7.43;;;6.03;;
11328;SDS011;5719;42.714;23.732;2024-02-21T11:41:19;9.10;;;6.95;;
11328;SDS011;5719;42.714;23.732;2024-02-21T11:43:47;8.82;;;6.13;;
11328;SDS011;5719;42.714;23.732;2024-02-21T11:46:16;5.93;;;5.32;;
11328;SDS011;5719;42.714;23.732;2024-02-21T11:48:43;7.75;;;5.88;;
11328;SDS011;5719;42.714;23.732;2024-02-21T11:51:20;11.30;;;7.20;;
11328;SDS011;5719;42.714;23.732;2024-02-21T11:53:47;7.03;;;5.90;;
11328;SDS011;5719;42.714;23.732;2024-02-21T11:56:15;9.40;;;6.15;;
11328;SDS011;5719;42.714;23.732;2024-02-21T11:58:42;6.88;;;5.85;;
11328;SDS011;5719;42.714;23.732;2024-02-21T12:01:09;7.57;;;6.03;;
11328;SDS011;5719;42.714;23.732;2024-02-21T12:03:36;9.75;;;6.57;;
11328;SDS011;5719;42.714;23.732;2024-02-21T12:06:03;8.32;;;6.03;;
11328;SDS011;5719;42.714;23.732;2024-02-21T12:08:40;7.45;;;6.00;;
11328;SDS011;5719;42.714;23.732;2024-02-21T12:11:16;9.10;;;6.38;;
11328;SDS011;5719;42.714;23.732;2024-02-21T12:13:45;9.00;;;5.93;;
11328;SDS011;5719;42.714;23.732;2024-02-21T12:16:14;7.47;;;5.75;;
11328;SDS011;5719;42.714;23.732;2024-02-21T12:18:41;10.93;;;7.25;;
11328;SDS011;5719;42.714;23.732;2024-02-21T12:21:09;5.97;;;5.30;;
11328;SDS011;5719;42.714;23.732;2024-02-21T12:23:37;8.05;;;5.82;;
11328;SDS011;5719;42.714;23.732;2024-02-21T12:26:04;12.73;;;7.63;;
11328;SDS011;5719;42.714;23.732;2024-02-21T12:28:32;8.60;;;6.95;;
11328;SDS011;5719;42.714;23.732;2024-02-21T12:30:59;14.73;;;8.65;;
11328;SDS011;5719;42.714;23.732;2024-02-21T12:33:26;16.70;;;10.15;;
11328;SDS011;5719;42.714;23.732;2024-02-21T12:35:53;24.33;;;10.68;;
11328;SDS011;5719;42.714;23.732;2024-02-21T12:38:20;33.25;;;10.77;;
11328;SDS011;5719;42.714;23.732;2024-02-21T12:40:47;8.85;;;6.47;;
11328;SDS011;5719;42.714;23.732;2024-02-21T12:43:14;16.23;;;7.13;;
11328;SDS011;5719;42.714;23.732;2024-02-21T12:45:42;6.40;;;5.40;;
11328;SDS011;5719;42.714;23.732;2024-02-21T12:48:09;7.65;;;5.38;;
11328;SDS011;5719;42.714;23.732;2024-02-21T12:50:36;8.75;;;5.93;;
11328;SDS011;5719;42.714;23.732;2024-02-21T12:53:02;9.40;;;6.38;;
11328;SDS011;5719;42.714;23.732;2024-02-21T12:55:29;8.32;;;6.28;;
11328;SDS011;5719;42.714;23.732;2024-02-21T12:57:57;8.40;;;6.75;;
11328;SDS011;5719;42.714;23.732;2024-02-21T13:00:29;10.27;;;6.78;;
11328;SDS011;5719;42.714;23.732;2024-02-21T13:02:58;9.10;;;6.53;;
11328;SDS011;5719;42.714;23.732;2024-02-21T13:05:25;7.13;;;5.65;;
11328;SDS011;5719;42.714;23.732;2024-02-21T13:07:52;9.40;;;6.82;;
11328;SDS011;5719;42.714;23.732;2024-02-21T13:10:19;7.75;;;5.38;;
11328;SDS011;5719;42.714;23.732;2024-02-21T13:12:46;7.40;;;6.10;;
11328;SDS011;5719;42.714;23.732;2024-02-21T13:15:13;9.50;;;6.47;;
11328;SDS011;5719;42.714;23.732;2024-02-21T13:17:43;10.15;;;6.03;;
11328;SDS011;5719;42.714;23.732;2024-02-21T13:20:11;30.30;;;7.10;;
11328;SDS011;5719;42.714;23.732;2024-02-21T13:22:38;9.63;;;7.00;;
11328;SDS011;5719;42.714;23.732;2024-02-21T13:25:05;8.63;;;6.78;;
11328;SDS011;5719;42.714;23.732;2024-02-21T13:27:33;12.77;;;6.70;;
11328;SDS011;5719;42.714;23.732;2024-02-21T13:30:00;7.28;;;6.57;;
11328;SDS011;5719;42.714;23.732;2024-02-21T13:32:31;9.93;;;6.75;;
11328;SDS011;5719;42.714;23.732;2024-02-21T13:34:58;9.07;;;6.80;;
11328;SDS011;5719;42.714;23.732;2024-02-21T13:37:27;9.32;;;7.03;;
11328;SDS011;5719;42.714;23.732;2024-02-21T13:39:54;10.43;;;6.75;;
11328;SDS011;5719;42.714;23.732;2024-02-21T13:42:21;8.90;;;6.40;;
11328;SDS011;5719;42.714;23.732;2024-02-21T13:44:49;10.15;;;6.78;;
11328;SDS011;5719;42.714;23.732;2024-02-21T13:47:15;8.65;;;6.38;;
11328;SDS011;5719;42.714;23.732;2024-02-21T13:49:42;7.90;;;6.07;;
11328;SDS011;5719;42.714;23.732;2024-02-21T13:52:08;7.80;;;5.78;;
11328;SDS011;5719;42.714;23.732;2024-02-21T13:54:37;7.18;;;5.78;;
11328;SDS011;5719;42.714;23.732;2024-02-21T13:57:04;5.70;;;5.05;;
11328;SDS011;5719;42.714;23.732;2024-02-21T13:59:31;9.95;;;5.82;;
11328;SDS011;5719;42.714;23.732;2024-02-21T14:01:58;7.57;;;5.50;;
11328;SDS011;5719;42.714;23.732;2024-02-21T14:04:25;7.45;;;5.85;;
11328;SDS011;5719;42.714;23.732;2024-02-21T14:06:52;8.57;;;5.35;;
11328;SDS011;5719;42.714;23.732;2024-02-21T14:09:19;8.57;;;5.97;;
11328;SDS011;5719;42.714;23.732;2024-02-21T14:11:47;8.95;;;5.88;;
11328;SDS011;5719;42.714;23.732;2024-02-21T14:14:14;10.15;;;5.88;;
11328;SDS011;5719;42.714;23.732;2024-02-21T14:16:41;8.82;;;5.80;;
11328;SDS011;5719;42.714;23.732;2024-02-21T14:19:08;8.32;;;5.78;;
11328;SDS011;5719;42.714;23.732;2024-02-21T14:21:36;9.75;;;5.32;;
11328;SDS011;5719;42.714;23.732;2024-02-21T14:24:03;9.93;;;5.28;;
11328;SDS011;5719;42.714;23.732;2024-02-21T14:26:31;5.97;;;4.72;;
11328;SDS011;5719;42.714;23.732;2024-02-21T14:28:59;6.65;;;4.55;;